SWR4TL LIRF-LSZH
Flight info
| Callsign | SWR4TL |
|---|---|
| Flight time | 1h 10m |
| Altitude | 36000 |
| Route | SOVAN DCT AMTEL DCT PEPAG DCT CANNE Z651 KELIP |
| Aircraft | A320/M-SDE3FGHIRWY/LB1 |
Departure
| Time | 2026-05-03 21:19 |
|---|---|
| Airport | Rome–Fiumicino Leonardo da Vinci International Airport (LIRF) |
Arrival
| Time | 2026-05-03 22:29 |
|---|---|
| Airport | Zürich Airport (LSZH) |
| Time | Latitude | Longitude | Altitude | Speed | Heading |
|---|---|---|---|---|---|
| 2026-05-03 21:19 | 41.72159 | 12.14762 | 7071 ft | 270 kts | 211° |
| 2026-05-03 21:19 | 41.70585 | 12.13329 | 8170 ft | 277 kts | 222° |
| 2026-05-03 21:19 | 41.69571 | 12.11118 | 9199 ft | 287 kts | 255° |
| 2026-05-03 21:19 | 41.69544 | 12.08444 | 10280 ft | 294 kts | 284° |
| 2026-05-03 21:20 | 41.70501 | 12.06039 | 11295 ft | 298 kts | 313° |
| 2026-05-03 21:20 | 41.72242 | 12.04462 | 12022 ft | 317 kts | 340° |
| 2026-05-03 21:20 | 41.74490 | 12.04034 | 12618 ft | 335 kts | 359° |
| 2026-05-03 21:20 | 41.76825 | 12.04131 | 13512 ft | 343 kts | 4° |
| 2026-05-03 21:21 | 41.79222 | 12.04415 | 14418 ft | 348 kts | 5° |
| 2026-05-03 21:21 | 41.81647 | 12.04755 | 15360 ft | 353 kts | 5° |
| 2026-05-03 21:21 | 41.84104 | 12.05084 | 16219 ft | 357 kts | 5° |
| 2026-05-03 21:21 | 41.86602 | 12.05373 | 17094 ft | 361 kts | 4° |
| 2026-05-03 21:22 | 41.89101 | 12.05616 | 17940 ft | 366 kts | 3° |
| 2026-05-03 21:22 | 41.91654 | 12.05833 | 18748 ft | 370 kts | 2° |
| 2026-05-03 21:22 | 41.94248 | 12.06039 | 19480 ft | 374 kts | 2° |
| 2026-05-03 21:22 | 41.96860 | 12.06037 | 20231 ft | 377 kts | 354° |
| 2026-05-03 21:23 | 41.99484 | 12.05757 | 21005 ft | 380 kts | 354° |
| 2026-05-03 21:23 | 42.02132 | 12.05487 | 21771 ft | 383 kts | 354° |
| 2026-05-03 21:23 | 42.04806 | 12.05221 | 22535 ft | 387 kts | 354° |
| 2026-05-03 21:23 | 42.07469 | 12.04960 | 23287 ft | 390 kts | 354° |
| 2026-05-03 21:24 | 42.10190 | 12.04696 | 23990 ft | 393 kts | 354° |
| 2026-05-03 21:24 | 42.12933 | 12.04433 | 24601 ft | 396 kts | 354° |
| 2026-05-03 21:24 | 42.15694 | 12.04171 | 25223 ft | 399 kts | 354° |
| 2026-05-03 21:24 | 42.18468 | 12.03875 | 25831 ft | 400 kts | 351° |
| 2026-05-03 21:25 | 42.21222 | 12.03280 | 26414 ft | 402 kts | 348° |
| 2026-05-03 21:25 | 42.23992 | 12.02650 | 26996 ft | 404 kts | 348° |
| 2026-05-03 21:25 | 42.26771 | 12.02016 | 27552 ft | 407 kts | 348° |
| 2026-05-03 21:25 | 42.29572 | 12.01383 | 28094 ft | 409 kts | 348° |
| 2026-05-03 21:26 | 42.32351 | 12.00758 | 28639 ft | 412 kts | 348° |
| 2026-05-03 21:26 | 42.35187 | 12.00121 | 29165 ft | 414 kts | 348° |
| 2026-05-03 21:26 | 42.38038 | 11.99479 | 29690 ft | 417 kts | 348° |
| 2026-05-03 21:26 | 42.40906 | 11.98830 | 30199 ft | 419 kts | 348° |
| 2026-05-03 21:27 | 42.43793 | 11.98178 | 30623 ft | 421 kts | 348° |
| 2026-05-03 21:27 | 42.46697 | 11.97522 | 31025 ft | 424 kts | 347° |
| 2026-05-03 21:27 | 42.49616 | 11.96863 | 31404 ft | 426 kts | 347° |
| 2026-05-03 21:27 | 42.52549 | 11.96200 | 31776 ft | 429 kts | 347° |
| 2026-05-03 21:28 | 42.55501 | 11.95529 | 32149 ft | 431 kts | 347° |
| 2026-05-03 21:28 | 42.58463 | 11.94853 | 32573 ft | 431 kts | 347° |
| 2026-05-03 21:28 | 42.61387 | 11.94191 | 33084 ft | 430 kts | 347° |
| 2026-05-03 21:28 | 42.64332 | 11.93526 | 33613 ft | 428 kts | 347° |
| 2026-05-03 21:29 | 42.67259 | 11.92866 | 34130 ft | 427 kts | 346° |
| 2026-05-03 21:29 | 42.70183 | 11.92206 | 34591 ft | 425 kts | 346° |
| 2026-05-03 21:29 | 42.73101 | 11.91544 | 35040 ft | 424 kts | 346° |
| 2026-05-03 21:29 | 42.76007 | 11.90881 | 35476 ft | 423 kts | 346° |
| 2026-05-03 21:30 | 42.78904 | 11.90220 | 35896 ft | 422 kts | 346° |
| 2026-05-03 21:30 | 42.81799 | 11.89498 | 36143 ft | 420 kts | 342° |
| 2026-05-03 21:30 | 42.84505 | 11.88306 | 36185 ft | 408 kts | 333° |
| 2026-05-03 21:30 | 42.87024 | 11.86595 | 36187 ft | 402 kts | 328° |
| 2026-05-03 21:31 | 42.91930 | 11.82998 | 36187 ft | 400 kts | 328° |
| 2026-05-03 21:31 | 42.96841 | 11.79407 | 36189 ft | 400 kts | 328° |
| 2026-05-03 21:32 | 43.01750 | 11.75814 | 36188 ft | 400 kts | 328° |
| 2026-05-03 21:32 | 43.06628 | 11.72226 | 36189 ft | 400 kts | 328° |
| 2026-05-03 21:33 | 43.11535 | 11.68610 | 36190 ft | 400 kts | 328° |
| 2026-05-03 21:33 | 43.16441 | 11.64996 | 36187 ft | 401 kts | 328° |
| 2026-05-03 21:34 | 43.21355 | 11.61364 | 36185 ft | 401 kts | 328° |
| 2026-05-03 21:34 | 43.26161 | 11.57486 | 36183 ft | 400 kts | 324° |
| 2026-05-03 21:35 | 43.30830 | 11.53334 | 36178 ft | 400 kts | 324° |
| 2026-05-03 21:35 | 43.35466 | 11.49191 | 36177 ft | 400 kts | 324° |
| 2026-05-03 21:36 | 43.40164 | 11.45060 | 36174 ft | 401 kts | 324° |
| 2026-05-03 21:36 | 43.44861 | 11.40966 | 36167 ft | 401 kts | 324° |
| 2026-05-03 21:37 | 43.49582 | 11.36847 | 36164 ft | 401 kts | 324° |
| 2026-05-03 21:37 | 43.54297 | 11.32723 | 36157 ft | 402 kts | 324° |
| 2026-05-03 21:38 | 43.59017 | 11.28573 | 36160 ft | 402 kts | 324° |
| 2026-05-03 21:38 | 43.63707 | 11.24442 | 36157 ft | 402 kts | 324° |
| 2026-05-03 21:39 | 43.68424 | 11.20276 | 36153 ft | 402 kts | 324° |
| 2026-05-03 21:39 | 43.73144 | 11.16089 | 36154 ft | 403 kts | 324° |
| 2026-05-03 21:40 | 43.77859 | 11.11909 | 36154 ft | 403 kts | 324° |
| 2026-05-03 21:40 | 43.82565 | 11.07741 | 36156 ft | 404 kts | 324° |
| 2026-05-03 21:41 | 43.87300 | 11.03540 | 36156 ft | 404 kts | 324° |
| 2026-05-03 21:41 | 43.92036 | 10.99318 | 36163 ft | 405 kts | 323° |
| 2026-05-03 21:42 | 43.96771 | 10.95084 | 36176 ft | 405 kts | 323° |
| 2026-05-03 21:42 | 44.01505 | 10.90838 | 36197 ft | 405 kts | 323° |
| 2026-05-03 21:43 | 44.06250 | 10.86591 | 36227 ft | 406 kts | 323° |
| 2026-05-03 21:43 | 44.10980 | 10.82360 | 36242 ft | 406 kts | 323° |
| 2026-05-03 21:44 | 44.15731 | 10.78088 | 36249 ft | 407 kts | 323° |
| 2026-05-03 21:44 | 44.20491 | 10.73800 | 36252 ft | 407 kts | 323° |
| 2026-05-03 21:45 | 44.25247 | 10.69499 | 36257 ft | 407 kts | 323° |
| 2026-05-03 21:45 | 44.29999 | 10.65200 | 36244 ft | 408 kts | 323° |
| 2026-05-03 21:46 | 44.34733 | 10.60918 | 36233 ft | 408 kts | 323° |
| 2026-05-03 21:46 | 44.39493 | 10.56593 | 36222 ft | 408 kts | 323° |
| 2026-05-03 21:47 | 44.44260 | 10.52244 | 36208 ft | 408 kts | 323° |
| 2026-05-03 21:47 | 44.49000 | 10.47921 | 36188 ft | 408 kts | 323° |
| 2026-05-03 21:48 | 44.53759 | 10.43579 | 36154 ft | 408 kts | 323° |
| 2026-05-03 21:48 | 44.58529 | 10.39213 | 36126 ft | 408 kts | 323° |
| 2026-05-03 21:49 | 44.63281 | 10.34850 | 36095 ft | 409 kts | 323° |
| 2026-05-03 21:49 | 44.68049 | 10.30468 | 36087 ft | 409 kts | 323° |
| 2026-05-03 21:50 | 44.72788 | 10.26110 | 36083 ft | 409 kts | 323° |
| 2026-05-03 21:50 | 44.77553 | 10.21720 | 36065 ft | 409 kts | 322° |
| 2026-05-03 21:51 | 44.82309 | 10.17316 | 36081 ft | 409 kts | 322° |
| 2026-05-03 21:51 | 44.87035 | 10.12932 | 36080 ft | 409 kts | 322° |
| 2026-05-03 21:52 | 44.91788 | 10.08509 | 36080 ft | 409 kts | 322° |
| 2026-05-03 21:52 | 44.96543 | 10.04089 | 36074 ft | 409 kts | 322° |
| 2026-05-03 21:53 | 45.00501 | 10.00406 | 36077 ft | 409 kts | 322° |
| 2026-05-03 21:53 | 45.05252 | 9.95973 | 36085 ft | 409 kts | 322° |
| 2026-05-03 21:54 | 45.10006 | 9.91532 | 36078 ft | 409 kts | 322° |
| 2026-05-03 21:54 | 45.14753 | 9.87066 | 36086 ft | 409 kts | 322° |
| 2026-05-03 21:55 | 45.19502 | 9.82602 | 36090 ft | 409 kts | 322° |
| 2026-05-03 21:55 | 45.24231 | 9.78165 | 36085 ft | 409 kts | 322° |
| 2026-05-03 21:56 | 45.28975 | 9.73702 | 36110 ft | 409 kts | 322° |
| 2026-05-03 21:56 | 45.33724 | 9.69216 | 36132 ft | 409 kts | 322° |
| 2026-05-03 21:57 | 45.38457 | 9.64718 | 36152 ft | 409 kts | 321° |
| 2026-05-03 21:57 | 45.43191 | 9.60216 | 36171 ft | 409 kts | 321° |
| 2026-05-03 21:58 | 45.47900 | 9.55735 | 36185 ft | 409 kts | 321° |
| 2026-05-03 21:58 | 45.52631 | 9.51223 | 36184 ft | 409 kts | 321° |
| 2026-05-03 21:59 | 45.57369 | 9.46701 | 36181 ft | 409 kts | 322° |
| 2026-05-03 21:59 | 45.62107 | 9.42183 | 36180 ft | 410 kts | 322° |
| 2026-05-03 22:00 | 45.66855 | 9.37636 | 36165 ft | 411 kts | 322° |
| 2026-05-03 22:00 | 45.71582 | 9.33094 | 36145 ft | 411 kts | 322° |
| 2026-05-03 22:01 | 45.76344 | 9.28500 | 36128 ft | 412 kts | 322° |
| 2026-05-03 22:01 | 45.80752 | 9.24246 | 36100 ft | 412 kts | 322° |
| 2026-05-03 22:02 | 45.85513 | 9.19648 | 36099 ft | 412 kts | 322° |
| 2026-05-03 22:02 | 45.90277 | 9.15032 | 36115 ft | 414 kts | 322° |
| 2026-05-03 22:03 | 45.95051 | 9.10399 | 36118 ft | 413 kts | 322° |
| 2026-05-03 22:03 | 45.99784 | 9.05776 | 36120 ft | 413 kts | 321° |
| 2026-05-03 22:04 | 46.04462 | 9.00962 | 36120 ft | 413 kts | 320° |
| 2026-05-03 22:04 | 46.09093 | 8.96056 | 36123 ft | 413 kts | 319° |
| 2026-05-03 22:05 | 46.13757 | 8.91188 | 36123 ft | 416 kts | 323° |
| 2026-05-03 22:05 | 46.19128 | 8.87925 | 36122 ft | 426 kts | 343° |
| 2026-05-03 22:06 | 46.25056 | 8.86853 | 36125 ft | 431 kts | 350° |
| 2026-05-03 22:06 | 46.30992 | 8.85971 | 35795 ft | 434 kts | 350° |
| 2026-05-03 22:07 | 46.33994 | 8.85519 | 35185 ft | 432 kts | 350° |
| 2026-05-03 22:07 | 46.36980 | 8.85069 | 34585 ft | 430 kts | 350° |
| 2026-05-03 22:07 | 46.39955 | 8.84624 | 33944 ft | 428 kts | 350° |
| 2026-05-03 22:07 | 46.42913 | 8.84183 | 33287 ft | 425 kts | 350° |
| 2026-05-03 22:08 | 46.45838 | 8.83745 | 32687 ft | 421 kts | 350° |
| 2026-05-03 22:08 | 46.48752 | 8.83309 | 32071 ft | 420 kts | 351° |
| 2026-05-03 22:08 | 46.51655 | 8.82872 | 31467 ft | 418 kts | 351° |
| 2026-05-03 22:08 | 46.54538 | 8.82435 | 30866 ft | 416 kts | 351° |
| 2026-05-03 22:09 | 46.57382 | 8.82000 | 30296 ft | 415 kts | 351° |
| 2026-05-03 22:09 | 46.60249 | 8.81564 | 29652 ft | 412 kts | 351° |
| 2026-05-03 22:09 | 46.63085 | 8.81135 | 29097 ft | 407 kts | 351° |
| 2026-05-03 22:10 | 46.68664 | 8.80295 | 28009 ft | 399 kts | 351° |
| 2026-05-03 22:10 | 46.71415 | 8.79877 | 27492 ft | 395 kts | 351° |
| 2026-05-03 22:10 | 46.74117 | 8.79464 | 26991 ft | 392 kts | 351° |
| 2026-05-03 22:10 | 46.76814 | 8.79049 | 26490 ft | 388 kts | 351° |
| 2026-05-03 22:11 | 46.79492 | 8.78637 | 25987 ft | 385 kts | 351° |
| 2026-05-03 22:11 | 46.82146 | 8.78231 | 25489 ft | 382 kts | 351° |
| 2026-05-03 22:11 | 46.84781 | 8.77828 | 24997 ft | 380 kts | 351° |
| 2026-05-03 22:11 | 46.87405 | 8.77426 | 24487 ft | 378 kts | 351° |
| 2026-05-03 22:12 | 46.90021 | 8.77027 | 23973 ft | 377 kts | 351° |
| 2026-05-03 22:12 | 46.92627 | 8.76629 | 23410 ft | 376 kts | 351° |
| 2026-05-03 22:12 | 46.95209 | 8.76198 | 22862 ft | 371 kts | 347° |
| 2026-05-03 22:12 | 46.97693 | 8.75307 | 22333 ft | 364 kts | 340° |
| 2026-05-03 22:13 | 47.00094 | 8.74277 | 21803 ft | 363 kts | 340° |
| 2026-05-03 22:13 | 47.02513 | 8.73236 | 21272 ft | 361 kts | 340° |
| 2026-05-03 22:13 | 47.04924 | 8.72197 | 20739 ft | 360 kts | 341° |
| 2026-05-03 22:13 | 47.07322 | 8.71166 | 20206 ft | 359 kts | 341° |
| 2026-05-03 22:14 | 47.09718 | 8.70136 | 19678 ft | 358 kts | 341° |
| 2026-05-03 22:14 | 47.12110 | 8.69106 | 19153 ft | 357 kts | 341° |
| 2026-05-03 22:14 | 47.14502 | 8.68078 | 18634 ft | 357 kts | 341° |
| 2026-05-03 22:14 | 47.16883 | 8.67053 | 18066 ft | 357 kts | 341° |
| 2026-05-03 22:15 | 47.19257 | 8.66031 | 17555 ft | 354 kts | 341° |
| 2026-05-03 22:15 | 47.21587 | 8.65024 | 17053 ft | 352 kts | 341° |
| 2026-05-03 22:15 | 47.23930 | 8.64012 | 16554 ft | 350 kts | 341° |
| 2026-05-03 22:15 | 47.26260 | 8.63004 | 16060 ft | 348 kts | 341° |
| 2026-05-03 22:16 | 47.28576 | 8.61998 | 15572 ft | 346 kts | 341° |
| 2026-05-03 22:16 | 47.30889 | 8.60993 | 15084 ft | 345 kts | 341° |
| 2026-05-03 22:16 | 47.33196 | 8.59991 | 14599 ft | 344 kts | 341° |
| 2026-05-03 22:16 | 47.35484 | 8.58982 | 14112 ft | 342 kts | 341° |
| 2026-05-03 22:17 | 47.37756 | 8.57979 | 13625 ft | 340 kts | 341° |
| 2026-05-03 22:17 | 47.39991 | 8.56990 | 13096 ft | 338 kts | 341° |
| 2026-05-03 22:17 | 47.42240 | 8.55991 | 12578 ft | 335 kts | 341° |
| 2026-05-03 22:17 | 47.44465 | 8.54991 | 12065 ft | 332 kts | 341° |
| 2026-05-03 22:18 | 47.46671 | 8.54002 | 11560 ft | 330 kts | 343° |
| 2026-05-03 22:18 | 47.48945 | 8.53687 | 11060 ft | 331 kts | 5° |
| 2026-05-03 22:18 | 47.51126 | 8.54703 | 10571 ft | 330 kts | 29° |
| 2026-05-03 22:18 | 47.52855 | 8.56891 | 10095 ft | 328 kts | 53° |
| 2026-05-03 22:19 | 47.53832 | 8.59828 | 9575 ft | 311 kts | 78° |
| 2026-05-03 22:19 | 47.53953 | 8.62908 | 9059 ft | 292 kts | 96° |
| 2026-05-03 22:19 | 47.53789 | 8.65801 | 8554 ft | 280 kts | 97° |
| 2026-05-03 22:19 | 47.53602 | 8.68607 | 8051 ft | 269 kts | 97° |
| 2026-05-03 22:20 | 47.53418 | 8.71298 | 7636 ft | 256 kts | 98° |
| 2026-05-03 22:20 | 47.53214 | 8.73830 | 7316 ft | 239 kts | 104° |
| 2026-05-03 22:20 | 47.52801 | 8.76184 | 7016 ft | 235 kts | 108° |
| 2026-05-03 22:20 | 47.52332 | 8.78493 | 6701 ft | 234 kts | 109° |
| 2026-05-03 22:21 | 47.51856 | 8.80781 | 6384 ft | 232 kts | 109° |
| 2026-05-03 22:21 | 47.51376 | 8.83063 | 6053 ft | 231 kts | 109° |
| 2026-05-03 22:21 | 47.50892 | 8.85328 | 5724 ft | 230 kts | 109° |
| 2026-05-03 22:21 | 47.50404 | 8.87575 | 5452 ft | 227 kts | 109° |
| 2026-05-03 22:22 | 47.49916 | 8.89755 | 5297 ft | 219 kts | 112° |
| 2026-05-03 22:22 | 47.49027 | 8.91470 | 5159 ft | 207 kts | 147° |
| 2026-05-03 22:22 | 47.47726 | 8.92012 | 5071 ft | 189 kts | 185° |
| 2026-05-03 22:22 | 47.46568 | 8.91344 | 5011 ft | 175 kts | 213° |
| 2026-05-03 22:23 | 47.45573 | 8.90323 | 5009 ft | 173 kts | 216° |
| 2026-05-03 22:23 | 47.44623 | 8.89275 | 5008 ft | 172 kts | 220° |
| 2026-05-03 22:23 | 47.43887 | 8.87898 | 5009 ft | 172 kts | 243° |
| 2026-05-03 22:23 | 47.43578 | 8.86201 | 5010 ft | 173 kts | 266° |
| 2026-05-03 22:24 | 47.43669 | 8.84428 | 5011 ft | 173 kts | 276° |
| 2026-05-03 22:24 | 47.43798 | 8.82703 | 5019 ft | 164 kts | 275° |
| 2026-05-03 22:24 | 47.43919 | 8.81074 | 4884 ft | 152 kts | 275° |
| 2026-05-03 22:24 | 47.44029 | 8.79582 | 4693 ft | 144 kts | 275° |
| 2026-05-03 22:25 | 47.44134 | 8.78142 | 4496 ft | 137 kts | 275° |
| 2026-05-03 22:25 | 47.44236 | 8.76755 | 4300 ft | 134 kts | 276° |
| 2026-05-03 22:25 | 47.44336 | 8.75385 | 4108 ft | 133 kts | 276° |
| 2026-05-03 22:25 | 47.44434 | 8.74032 | 3915 ft | 132 kts | 276° |
| 2026-05-03 22:26 | 47.44533 | 8.72685 | 3727 ft | 131 kts | 276° |
| 2026-05-03 22:26 | 47.44630 | 8.71345 | 3536 ft | 131 kts | 275° |
| 2026-05-03 22:26 | 47.44726 | 8.70026 | 3350 ft | 130 kts | 276° |
| 2026-05-03 22:26 | 47.44822 | 8.68695 | 3161 ft | 130 kts | 276° |
| 2026-05-03 22:27 | 47.44918 | 8.67372 | 2973 ft | 129 kts | 275° |
| 2026-05-03 22:27 | 47.45013 | 8.66049 | 2785 ft | 130 kts | 275° |
| 2026-05-03 22:27 | 47.45109 | 8.64724 | 2590 ft | 129 kts | 275° |
| 2026-05-03 22:27 | 47.45203 | 8.63417 | 2404 ft | 129 kts | 275° |
| 2026-05-03 22:28 | 47.45298 | 8.62095 | 2204 ft | 130 kts | 276° |
| 2026-05-03 22:28 | 47.45394 | 8.60763 | 2009 ft | 130 kts | 276° |
| 2026-05-03 22:28 | 47.45489 | 8.59427 | 1816 ft | 131 kts | 275° |
| 2026-05-03 22:28 | 47.45585 | 8.58087 | 1626 ft | 131 kts | 275° |
| 2026-05-03 22:29 | 47.45681 | 8.56750 | 1436 ft | 131 kts | 275° |
| 2026-05-03 22:29 | 47.45766 | 8.55540 | 1397 ft | 96 kts | 275° |
| 2026-05-03 22:29 | 47.45811 | 8.54915 | 1396 ft | 39 kts | 275° |
| 2026-05-03 22:29 | 47.45822 | 8.54573 | 1399 ft | 33 kts | 262° |
| 2026-05-03 22:30 | 47.45766 | 8.54302 | 1403 ft | 13 kts | 239° |
| 2026-05-03 22:30 | 47.45695 | 8.54204 | 1399 ft | 16 kts | 191° |
| 2026-05-03 22:30 | 47.45607 | 8.54304 | 1401 ft | 19 kts | 112° |
| 2026-05-03 22:30 | 47.45562 | 8.54511 | 1397 ft | 23 kts | 109° |
| 2026-05-03 22:31 | 47.45507 | 8.54751 | 1401 ft | 27 kts | 108° |
| 2026-05-03 22:31 | 47.45447 | 8.55026 | 1400 ft | 29 kts | 109° |
| 2026-05-03 22:31 | 47.45369 | 8.55316 | 1405 ft | 32 kts | 118° |
| 2026-05-03 22:31 | 47.45277 | 8.55571 | 1400 ft | 15 kts | 103° |
| 2026-05-03 22:32 | 47.45266 | 8.55712 | 1397 ft | 9 kts | 98° |
| 2026-05-03 22:32 | 47.45248 | 8.55761 | 1406 ft | 4 kts | 161° |
| 2026-05-03 22:32 | 47.45217 | 8.55755 | 1405 ft | 5 kts | 187° |
| 2026-05-03 22:32 | 47.45190 | 8.55751 | 1401 ft | 0 kts | 186° |